Time;durP1;ratioP1;P1;durP2;ratioP2;P2;SDS_P1;SDS_P2;PMS_P1;PMS_P2;Temp;Humidity;BMP_temperature;BMP_pressure;BME280_temperature;BME280_humidity;BME280_pressure;Samples;Min_cycle;Max_cycle;Signal;HPM_P1;HPM_P2
2021/10/16 00:02:25;;;;;;;20.08;11.48;;;5.10;99.90;;;;;;5050160;28;20490;-81
2021/10/16 00:04:51;;;;;;;24.48;14.50;;;5.10;99.90;;;;;;5050280;28;20509;-81
2021/10/16 00:07:16;;;;;;;;;;;5.20;99.90;;;;;;5051757;28;20116;-81
2021/10/16 00:09:42;;;;;;;20.23;10.98;;;5.30;99.90;;;;;;5050981;28;20401;-80
2021/10/16 00:12:07;;;;;;;;;;;5.40;99.90;;;;;;5051597;28;20171;-80
2021/10/16 00:14:33;;;;;;;23.17;13.88;;;5.40;99.90;;;;;;5049699;28;19908;-82
2021/10/16 00:16:59;;;;;;;30.67;15.10;;;5.40;99.90;;;;;;5050142;28;20033;-80
2021/10/16 00:19:25;;;;;;;;;;;5.40;99.90;;;;;;5050640;28;20033;-81
2021/10/16 00:21:50;;;;;;;31.38;12.70;;;5.40;99.90;;;;;;5049283;28;19951;-81
2021/10/16 00:24:16;;;;;;;23.55;12.50;;;5.40;99.90;;;;;;5050806;28;20028;-81
2021/10/16 00:26:41;;;;;;;;;;;5.40;99.90;;;;;;5051574;28;20037;-80
2021/10/16 00:29:07;;;;;;;29.15;14.45;;;5.30;99.90;;;;;;5049687;28;19931;-80
2021/10/16 00:31:33;;;;;;;33.22;15.10;;;5.30;99.90;;;;;;5050852;28;20029;-80
2021/10/16 00:33:58;;;;;;;;;;;5.30;99.90;;;;;;5051155;28;20128;-80
2021/10/16 00:36:24;;;;;;;31.02;13.73;;;5.20;99.90;;;;;;5049397;28;20370;-80
2021/10/16 00:38:50;;;;;;;23.38;11.88;;;5.10;99.90;;;;;;5049703;28;20029;-82
2021/10/16 00:41:16;;;;;;;;;;;5.10;99.90;;;;;;5051356;28;20068;-81
2021/10/16 00:43:42;;;;;;;17.83;10.13;;;5.10;99.90;;;;;;5050767;28;19916;-81
2021/10/16 00:46:07;;;;;;;;;;;5.10;99.90;;;;;;5050403;28;20025;-82
2021/10/16 00:48:33;;;;;;;18.77;9.82;;;5.10;99.90;;;;;;5050165;28;19916;-81
2021/10/16 00:50:58;;;;;;;20.30;11.05;;;5.00;99.90;;;;;;5051301;28;20033;-83
2021/10/16 00:53:24;;;;;;;;;;;4.90;99.90;;;;;;5049708;28;20513;-81
2021/10/16 00:55:50;;;;;;;20.65;9.35;;;4.80;99.90;;;;;;5049988;28;19904;-79
2021/10/16 00:58:16;;;;;;;;;;;4.80;99.90;;;;;;5051023;28;20045;-81
2021/10/16 01:00:41;;;;;;;19.05;9.57;;;4.70;99.90;;;;;;5053677;28;19909;-80
2021/10/16 01:03:07;;;;;;;;;;;4.70;99.90;;;;;;5051223;28;20037;-82
2021/10/16 01:05:34;;;;;;;28.15;12.25;;;4.70;99.90;;;;;;5049955;28;19920;-82
2021/10/16 01:08:02;;;;;;;20.92;11.52;;;4.60;99.90;;;;;;5049389;28;20067;-81
2021/10/16 01:10:28;;;;;;;24.50;13.38;;;4.60;99.90;;;;;;5050220;28;20048;-80
2021/10/16 01:12:53;;;;;;;;;;;4.60;99.90;;;;;;5048926;28;20068;-80
2021/10/16 01:15:22;;;;;;;20.08;9.43;;;4.60;99.90;;;;;;5048734;28;19955;-80
2021/10/16 01:17:50;;;;;;;19.00;9.32;;;4.60;99.90;;;;;;5048880;28;20033;-81
2021/10/16 01:20:19;;;;;;;17.83;10.38;;;4.60;99.90;;;;;;5048487;28;20021;-80
2021/10/16 01:22:48;;;;;;;18.13;10.35;;;4.60;99.90;;;;;;5049751;28;20039;-79
2021/10/16 01:25:24;;;;;;;20.88;10.98;;;4.60;99.90;;;;;;5048786;28;20031;-80
2021/10/16 01:27:50;;;;;;;24.33;11.80;;;4.60;99.90;;;;;;5049879;28;20528;-81
2021/10/16 01:30:19;;;;;;;17.65;10.05;;;4.50;99.90;;;;;;5049822;28;20078;-82
2021/10/16 01:32:45;;;;;;;16.88;10.10;;;4.50;99.90;;;;;;5049389;28;20037;-79
2021/10/16 01:35:12;;;;;;;17.60;8.52;;;4.50;99.90;;;;;;5049345;28;20027;-81
2021/10/16 01:37:44;;;;;;;14.85;8.13;;;4.50;99.90;;;;;;5048369;28;20120;-81
2021/10/16 01:40:11;;;;;;;19.05;8.77;;;4.50;99.90;;;;;;5048056;28;20021;-81
2021/10/16 01:42:42;;;;;;;21.92;10.60;;;4.50;99.90;;;;;;5048122;28;20044;-80
2021/10/16 01:45:09;;;;;;;21.83;10.32;;;4.50;99.90;;;;;;5049429;28;20100;-79
2021/10/16 01:47:45;;;;;;;22.38;10.55;;;4.50;99.90;;;;;;5047959;28;20032;-79
2021/10/16 01:50:11;;;;;;;21.33;9.82;;;4.60;99.90;;;;;;5049073;28;20029;-79
2021/10/16 01:52:37;;;;;;;20.02;10.15;;;4.60;99.90;;;;;;5049026;28;20534;-80
2021/10/16 01:55:02;;;;;;;;;;;4.60;99.90;;;;;;5048356;28;20080;-80
2021/10/16 01:57:28;;;;;;;22.08;9.00;;;4.60;99.90;;;;;;5049561;28;19909;-81
2021/10/16 01:59:53;;;;;;;;;;;4.70;99.90;;;;;;5049165;28;20102;-82
2021/10/16 02:02:19;;;;;;;14.68;6.85;;;4.70;99.90;;;;;;5048213;28;19916;-82
2021/10/16 02:04:44;;;;;;;;;;;4.80;99.90;;;;;;5049163;28;20551;-82
2021/10/16 02:07:10;;;;;;;14.43;7.63;;;4.80;99.90;;;;;;5049998;28;19909;-82
2021/10/16 02:09:36;;;;;;;14.27;7.47;;;5.00;99.90;;;;;;5050009;28;20063;-82
2021/10/16 02:12:01;;;;;;;12.52;7.53;;;5.00;99.90;;;;;;5048527;28;20032;-81
2021/10/16 02:14:27;;;;;;;;;;;5.20;99.90;;;;;;5049866;28;20033;-82
2021/10/16 02:16:53;;;;;;;18.02;7.32;;;5.20;99.90;;;;;;5047919;28;19966;-81
2021/10/16 02:19:18;;;;;;;14.07;7.18;;;5.40;99.90;;;;;;5048974;28;20473;-81
2021/10/16 02:21:44;;;;;;;;;;;5.40;99.90;;;;;;5048248;28;20052;-81
2021/10/16 02:24:09;;;;;;;10.88;5.75;;;5.50;99.90;;;;;;5048717;28;20335;-81
2021/10/16 02:26:35;;;;;;;13.93;5.70;;;5.50;99.90;;;;;;5049067;28;20028;-80
2021/10/16 02:29:01;;;;;;;8.45;4.28;;;5.50;99.90;;;;;;5049134;28;20059;-81
2021/10/16 02:31:26;;;;;;;;;;;5.60;99.90;;;;;;5049401;28;20033;-82
2021/10/16 02:33:52;;;;;;;10.13;5.10;;;5.70;99.90;;;;;;5049065;28;19912;-81
2021/10/16 02:36:17;;;;;;;;;;;5.70;99.90;;;;;;5047879;28;20040;-81
2021/10/16 02:38:43;;;;;;;10.77;5.32;;;5.70;99.90;;;;;;5049010;28;19905;-80
2021/10/16 02:41:09;;;;;;;10.43;5.70;;;5.70;99.90;;;;;;5047361;28;20042;-81
2021/10/16 02:43:34;;;;;;;;;;;5.70;99.90;;;;;;5049331;28;20133;-80
2021/10/16 02:46:00;;;;;;;8.73;4.90;;;5.80;99.90;;;;;;5052908;28;19909;-82
2021/10/16 02:48:25;;;;;;;7.35;4.05;;;5.80;99.90;;;;;;5051199;28;20029;-81
2021/10/16 02:50:51;;;;;;;8.45;3.85;;;5.80;99.90;;;;;;5052533;28;20040;-81
2021/10/16 02:53:17;;;;;;;8.55;4.43;;;5.80;99.90;;;;;;5050675;28;20095;-81
2021/10/16 02:55:42;;;;;;;9.00;3.97;;;5.80;99.90;;;;;;5052661;28;20490;-79
2021/10/16 02:58:08;;;;;;;;;;;5.80;99.90;;;;;;5053195;28;20398;-80
2021/10/16 03:00:34;;;;;;;7.47;3.85;;;5.80;99.90;;;;;;5052585;28;20003;-80
2021/10/16 03:02:59;;;;;;;;;;;5.80;99.90;;;;;;5052897;28;20051;-81
2021/10/16 03:05:25;;;;;;;7.10;3.80;;;5.80;99.90;;;;;;5052502;28;19908;-81
2021/10/16 03:07:50;;;;;;;6.70;3.38;;;5.90;99.90;;;;;;5052680;28;20063;-79
2021/10/16 03:10:16;;;;;;;;;;;5.90;99.90;;;;;;5052559;28;20479;-80
2021/10/16 03:12:41;;;;;;;6.82;3.88;;;5.90;99.90;;;;;;5051015;28;19916;-81
2021/10/16 03:15:07;;;;;;;;;;;6.00;99.90;;;;;;5051443;28;20093;-80
2021/10/16 03:17:33;;;;;;;8.32;3.55;;;6.00;99.90;;;;;;5051289;28;19909;-80
2021/10/16 03:19:58;;;;;;;;;;;6.10;99.90;;;;;;5051262;28;20029;-80
2021/10/16 03:22:24;;;;;;;7.00;2.90;;;6.10;99.90;;;;;;5051777;28;20384;-80
2021/10/16 03:24:49;;;;;;;;;;;6.20;99.90;;;;;;5052506;28;20021;-80
2021/10/16 03:27:15;;;;;;;4.63;2.60;;;6.20;99.90;;;;;;5051935;28;19951;-80
2021/10/16 03:29:40;;;;;;;6.28;3.38;;;6.30;99.90;;;;;;5051937;28;20504;-80
2021/10/16 03:32:06;;;;;;;;;;;6.30;99.90;;;;;;5052310;28;20052;-80
2021/10/16 03:34:32;;;;;;;6.10;3.38;;;6.30;99.90;;;;;;5050364;28;19962;-79
2021/10/16 03:36:57;;;;;;;;;;;6.30;99.90;;;;;;5052474;28;20133;-80
2021/10/16 03:39:23;;;;;;;5.90;2.88;;;6.40;99.90;;;;;;5051576;28;19904;-80
2021/10/16 03:41:49;;;;;;;4.85;2.47;;;6.40;99.90;;;;;;5050453;28;20132;-80
2021/10/16 03:44:14;;;;;;;;;;;6.50;99.90;;;;;;5051951;28;20074;-80
2021/10/16 03:46:40;;;;;;;5.93;2.92;;;6.50;99.90;;;;;;5051950;28;19924;-80
2021/10/16 03:49:06;;;;;;;6.82;3.80;;;6.50;99.90;;;;;;5051734;28;20389;-80
2021/10/16 03:51:32;;;;;;;;;;;6.60;99.90;;;;;;5050805;28;20040;-80
2021/10/16 03:53:57;;;;;;;5.97;4.03;;;6.50;99.90;;;;;;5051053;28;19920;-80
2021/10/16 03:56:23;;;;;;;;;;;6.60;99.90;;;;;;5051947;28;20021;-79
2021/10/16 03:58:48;;;;;;;8.32;3.97;;;6.60;99.90;;;;;;5051343;28;19908;-80
2021/10/16 04:01:14;;;;;;;;;;;6.70;99.90;;;;;;5050384;28;20040;-81
2021/10/16 04:03:40;;;;;;;10.55;4.30;;;6.70;99.90;;;;;;5051332;28;19916;-80
2021/10/16 04:06:05;;;;;;;;;;;6.70;99.90;;;;;;5050296;28;20028;-80
2021/10/16 04:08:31;;;;;;;10.25;5.55;;;6.80;99.90;;;;;;5049869;28;19916;-81
2021/10/16 04:10:56;;;;;;;;;;;6.80;99.90;;;;;;5050240;28;20039;-80
2021/10/16 04:13:22;;;;;;;42.28;28.30;;;6.80;99.90;;;;;;5050945;28;19909;-80
2021/10/16 04:15:48;;;;;;;38.45;26.23;;;6.80;99.90;;;;;;5051233;28;20025;-81
2021/10/16 04:18:13;;;;;;;;;;;6.70;99.90;;;;;;5051258;28;20033;-79
2021/10/16 04:20:39;;;;;;;21.27;14.90;;;6.70;99.90;;;;;;5050899;28;19909;-78
2021/10/16 04:23:05;;;;;;;;;;;6.60;99.90;;;;;;5050054;28;20040;-80
2021/10/16 04:25:31;;;;;;;15.32;9.40;;;6.60;99.90;;;;;;5050924;28;19908;-80
2021/10/16 04:27:57;;;;;;;13.50;8.02;;;6.60;99.90;;;;;;5049544;28;20556;-80
2021/10/16 04:30:22;;;;;;;;;;;6.70;99.90;;;;;;5051263;28;20033;-80
2021/10/16 04:32:48;;;;;;;14.43;5.30;;;6.70;99.90;;;;;;5051035;28;20003;-80
2021/10/16 04:35:14;;;;;;;;;;;6.80;99.90;;;;;;5050938;28;20036;-80
2021/10/16 04:37:41;;;;;;;8.32;4.63;;;6.90;99.90;;;;;;5050504;28;19909;-81
2021/10/16 04:40:17;;;;;;;9.90;5.50;;;6.90;99.90;;;;;;5049420;28;20036;-80
2021/10/16 04:42:43;;;;;;;;;;;7.00;99.90;;;;;;5051006;28;20043;-80
2021/10/16 04:45:09;;;;;;;7.63;4.53;;;7.10;99.90;;;;;;5049127;28;19908;-80
2021/10/16 04:47:35;;;;;;;;;;;7.20;99.90;;;;;;5051009;28;20029;-79
2021/10/16 04:50:00;;;;;;;7.00;4.82;;;7.20;99.90;;;;;;5049244;28;19915;-78
2021/10/16 04:52:27;;;;;;;12.93;6.03;;;7.30;99.90;;;;;;5050380;28;20039;-80
2021/10/16 04:54:52;;;;;;;;;;;7.30;99.90;;;;;;5049441;28;20052;-80
2021/10/16 04:57:18;;;;;;;13.07;6.55;;;7.40;99.90;;;;;;5050267;28;20285;-80
2021/10/16 04:59:43;;;;;;;;;;;7.40;99.90;;;;;;5050649;28;20471;-80
2021/10/16 05:02:09;;;;;;;15.15;7.13;;;7.50;99.90;;;;;;5049896;28;19923;-77
2021/10/16 05:04:35;;;;;;;19.58;7.72;;;7.50;99.90;;;;;;5048791;28;20045;-79
2021/10/16 05:07:00;;;;;;;;;;;7.50;99.90;;;;;;5050079;28;20094;-80
2021/10/16 05:09:26;;;;;;;40.97;10.15;;;7.50;99.90;;;;;;5050067;28;19909;-78
2021/10/16 05:11:51;;;;;;;42.05;10.18;;;7.50;99.90;;;;;;5050039;28;20482;-78
2021/10/16 05:14:17;;;;;;;;;;;7.50;99.90;;;;;;5050134;28;20037;-80
2021/10/16 05:16:42;;;;;;;47.75;10.23;;;7.60;99.90;;;;;;5049793;28;20449;-80
2021/10/16 05:19:08;;;;;;;;;;;7.60;99.90;;;;;;5048753;28;20054;-79
2021/10/16 05:21:34;;;;;;;14.85;6.28;;;7.70;99.90;;;;;;5049516;28;20379;-79
2021/10/16 05:23:59;;;;;;;18.38;10.20;;;7.90;99.90;;;;;;5049826;28;20029;-81
2021/10/16 05:26:25;;;;;;;;;;;8.10;99.90;;;;;;5048712;28;20036;-79
2021/10/16 05:28:50;;;;;;;13.93;8.40;;;8.30;99.90;;;;;;5048483;28;20004;-79
2021/10/16 05:31:16;;;;;;;;;;;8.50;99.90;;;;;;5048383;28;20116;-80
2021/10/16 05:33:41;;;;;;;11.95;6.20;;;8.50;99.90;;;;;;5048017;28;20024;-80
2021/10/16 05:36:07;;;;;;;;;;;8.50;99.90;;;;;;5049856;28;20075;-79
2021/10/16 05:38:33;;;;;;;10.10;6.22;;;8.60;99.90;;;;;;5047856;28;20028;-78
2021/10/16 05:40:58;;;;;;;10.60;6.35;;;8.70;99.90;;;;;;5048129;28;20091;-79
2021/10/16 05:43:24;;;;;;;;;;;8.60;99.90;;;;;;5049837;28;20489;-79
2021/10/16 05:45:49;;;;;;;11.30;6.32;;;8.50;99.90;;;;;;5048923;28;19915;-77
2021/10/16 05:48:15;;;;;;;11.93;6.85;;;8.50;99.90;;;;;;5047635;28;20490;-79
2021/10/16 05:50:42;;;;;;;13.23;7.03;;;8.40;99.90;;;;;;5047571;28;20482;-78
2021/10/16 05:53:07;;;;;;;13.25;7.20;;;8.30;99.90;;;;;;5048830;28;20083;-80
2021/10/16 05:55:33;;;;;;;;;;;8.30;99.90;;;;;;5048475;28;20088;-81
2021/10/16 05:57:58;;;;;;;10.35;6.65;;;8.20;99.90;;;;;;5049263;28;19995;-80
2021/10/16 06:00:24;;;;;;;;;;;8.30;99.90;;;;;;5049459;28;20513;-79
2021/10/16 06:02:51;;;;;;;12.52;5.65;;;8.30;99.90;;;;;;5048924;28;20274;-79
2021/10/16 06:05:17;;;;;;;8.48;5.70;;;8.30;99.90;;;;;;5048974;28;20053;-79
2021/10/16 06:07:43;;;;;;;;;;;8.50;99.90;;;;;;5049440;28;20072;-79
2021/10/16 06:10:09;;;;;;;9.82;5.25;;;8.40;99.90;;;;;;5047114;28;19916;-79
2021/10/16 06:12:34;;;;;;;;;;;8.50;99.90;;;;;;5047880;28;20032;-78
2021/10/16 06:15:00;;;;;;;9.57;5.93;;;8.70;99.90;;;;;;5047227;28;19934;-79
2021/10/16 06:17:25;;;;;;;;;;;8.80;99.90;;;;;;5047823;28;20090;-79
2021/10/16 06:19:52;;;;;;;10.57;6.13;;;8.90;99.90;;;;;;5047390;28;20376;-78
2021/10/16 06:22:18;;;;;;;11.50;5.95;;;9.00;99.90;;;;;;5048409;28;20040;-79
2021/10/16 06:24:43;;;;;;;;;;;9.30;99.90;;;;;;5049120;28;20021;-79
2021/10/16 06:27:09;;;;;;;23.40;6.40;;;9.60;99.90;;;;;;5048448;28;19931;-80
2021/10/16 06:29:35;;;;;;;;;;;9.80;99.90;;;;;;5047832;28;20568;-80
2021/10/16 06:32:00;;;;;;;15.35;6.38;;;10.10;99.30;;;;;;5048506;28;19909;-79
2021/10/16 06:34:26;;;;;;;;;;;10.30;98.90;;;;;;5047267;28;20030;-78
2021/10/16 06:36:51;;;;;;;11.32;6.22;;;10.40;97.90;;;;;;5048880;28;19909;-79
2021/10/16 06:39:17;;;;;;;;;;;10.50;97.70;;;;;;5047357;28;20029;-79
2021/10/16 06:41:43;;;;;;;15.60;9.48;;;10.50;99.40;;;;;;5048297;28;20432;-79
2021/10/16 06:44:08;;;;;;;;;;;10.50;99.90;;;;;;5047431;28;20041;-78
2021/10/16 06:46:34;;;;;;;11.25;7.65;;;10.50;99.90;;;;;;5046113;28;19920;-79
2021/10/16 06:48:59;;;;;;;;;;;10.40;99.90;;;;;;5044949;28;20517;-78
2021/10/16 06:51:25;;;;;;;16.20;9.80;;;10.40;99.90;;;;;;5040584;28;19921;-78
2021/10/16 06:53:51;;;;;;;;;;;10.30;99.90;;;;;;5046894;28;20056;-78
2021/10/16 06:56:16;;;;;;;23.65;11.23;;;10.30;99.90;;;;;;5044807;28;19921;-79
2021/10/16 06:58:42;;;;;;;;;;;10.20;99.90;;;;;;5042984;28;20115;-78
2021/10/16 07:01:07;;;;;;;17.15;9.45;;;10.30;99.90;;;;;;5045993;28;20280;-79
2021/10/16 07:03:33;;;;;;;;;;;10.40;99.90;;;;;;5046197;28;20545;-79
2021/10/16 07:05:59;;;;;;;12.70;8.43;;;10.50;99.90;;;;;;5046939;28;20583;-79
2021/10/16 07:08:25;;;;;;;;;;;10.70;99.90;;;;;;5046444;28;20045;-78
2021/10/16 07:10:51;;;;;;;10.30;7.15;;;10.90;99.90;;;;;;5044301;28;20393;-79
2021/10/16 07:13:17;;;;;;;10.60;6.72;;;11.20;99.60;;;;;;5047069;28;20069;-78
2021/10/16 07:15:43;;;;;;;;;;;11.40;98.90;;;;;;5045240;28;20048;-78
2021/10/16 07:18:09;;;;;;;18.15;8.40;;;11.60;98.00;;;;;;5046752;28;19917;-78
2021/10/16 07:20:35;;;;;;;17.83;8.90;;;11.80;97.80;;;;;;5046862;28;20044;-79
2021/10/16 07:23:01;;;;;;;;;;;11.90;97.00;;;;;;5044628;28;20935;-79
2021/10/16 07:25:26;;;;;;;17.98;8.85;;;12.00;96.60;;;;;;5046445;28;20709;-79
2021/10/16 07:27:54;;;;;;;;;;;12.10;96.70;;;;;;5045897;28;20116;-78
2021/10/16 07:30:20;;;;;;;13.45;9.02;;;12.20;97.20;;;;;;5048038;28;19913;-79
2021/10/16 07:32:47;;;;;;;10.63;7.40;;;12.20;97.10;;;;;;5048854;28;20494;-78
2021/10/16 07:35:14;;;;;;;12.00;8.80;;;12.30;96.50;;;;;;5050318;28;20029;-78
2021/10/16 07:37:40;;;;;;;30.20;9.80;;;12.30;96.40;;;;;;5048019;28;20099;-78
2021/10/16 07:40:06;;;;;;;;;;;12.20;96.20;;;;;;5049478;28;20032;-79
2021/10/16 07:42:32;;;;;;;19.77;9.45;;;12.10;95.50;;;;;;5050092;28;20405;-79
2021/10/16 07:44:57;;;;;;;;;;;12.20;95.40;;;;;;5050467;28;20049;-79
2021/10/16 07:47:26;;;;;;;14.95;9.20;;;12.20;95.10;;;;;;5048859;28;19917;-78
2021/10/16 07:49:52;;;;;;;21.00;9.15;;;12.10;95.00;;;;;;5049777;28;20488;-79
2021/10/16 07:52:18;;;;;;;12.55;9.35;;;12.20;94.70;;;;;;5050092;28;20041;-79
2021/10/16 07:54:44;;;;;;;;;;;12.30;94.60;;;;;;5050474;28;20055;-79
2021/10/16 07:57:09;;;;;;;15.32;10.75;;;12.50;93.60;;;;;;5048777;28;19948;-79
2021/10/16 07:59:35;;;;;;;;;;;12.50;93.80;;;;;;5050664;28;20033;-79
2021/10/16 08:02:00;;;;;;;26.10;15.57;;;12.80;93.50;;;;;;5048281;28;19959;-79
2021/10/16 08:04:26;;;;;;;;;;;13.00;93.30;;;;;;5048812;28;20033;-78
2021/10/16 08:06:51;;;;;;;47.00;24.98;;;13.10;92.20;;;;;;5048407;28;19925;-79
2021/10/16 08:09:17;;;;;;;21.48;13.77;;;13.10;91.90;;;;;;5050111;28;20548;-78
2021/10/16 08:11:43;;;;;;;;;;;13.20;91.80;;;;;;5050561;28;20049;-79
2021/10/16 08:14:08;;;;;;;22.83;16.05;;;13.20;90.90;;;;;;5047367;28;19912;-79
2021/10/16 08:16:34;;;;;;;;;;;13.30;91.50;;;;;;5048520;28;20044;-79
2021/10/16 08:18:59;;;;;;;15.60;10.00;;;13.40;90.40;;;;;;5047614;28;20305;-79
2021/10/16 08:21:25;;;;;;;15.38;9.85;;;13.40;90.60;;;;;;5048652;28;20040;-80
2021/10/16 08:23:51;;;;;;;14.93;9.75;;;13.40;90.70;;;;;;5049734;28;20036;-79
2021/10/16 08:26:16;;;;;;;;;;;13.40;90.60;;;;;;5051088;28;20406;-80
2021/10/16 08:28:42;;;;;;;13.90;8.50;;;13.40;90.40;;;;;;5050546;28;19909;-80
2021/10/16 08:31:08;;;;;;;;;;;13.50;90.60;;;;;;5050142;28;20084;-79
2021/10/16 08:33:37;;;;;;;20.92;9.60;;;13.70;90.30;;;;;;5050366;28;19905;-79
2021/10/16 08:36:04;;;;;;;13.57;8.35;;;13.80;90.20;;;;;;5050584;28;20028;-80
2021/10/16 08:38:30;;;;;;;12.40;7.60;;;13.90;89.60;;;;;;5048954;28;20505;-80
2021/10/16 08:40:56;;;;;;;;;;;14.00;88.60;;;;;;5049765;28;20025;-80
2021/10/16 08:43:21;;;;;;;13.55;8.52;;;13.90;88.60;;;;;;5050227;28;20400;-80
2021/10/16 08:45:47;;;;;;;;;;;14.00;88.50;;;;;;5050884;28;20021;-80
2021/10/16 08:48:15;;;;;;;20.52;10.38;;;13.90;88.60;;;;;;5050138;28;19916;-80
2021/10/16 08:50:44;;;;;;;12.45;8.07;;;13.90;88.50;;;;;;5050289;28;20104;-80
2021/10/16 08:53:10;;;;;;;13.50;8.38;;;13.80;89.10;;;;;;5048579;28;20052;-80
2021/10/16 08:55:35;;;;;;;;;;;13.80;89.50;;;;;;5050513;28;20394;-80
2021/10/16 08:58:01;;;;;;;12.45;8.07;;;13.90;88.90;;;;;;5048776;28;19909;-79
2021/10/16 09:00:36;;;;;;;17.92;9.20;;;14.10;87.90;;;;;;5048277;28;20021;-80
2021/10/16 09:03:23;;;;;;;12.60;8.68;;;14.40;86.80;;;;;;5049719;28;20061;-80
2021/10/16 09:06:07;;;;;;;12.98;8.57;;;14.30;85.60;;;;;;5049927;28;20036;-80
2021/10/16 09:08:53;;;;;;;15.70;8.73;;;14.20;85.50;;;;;;5048525;28;20128;-80
2021/10/16 09:11:40;;;;;;;11.05;8.02;;;14.20;85.80;;;;;;5049788;28;20033;-80
2021/10/16 09:14:21;;;;;;;15.75;9.63;;;14.50;86.40;;;;;;5048418;28;20029;-80
2021/10/16 09:16:58;;;;;;;15.77;9.10;;;15.00;84.50;;;;;;5048661;28;20051;-80
2021/10/16 09:19:23;;;;;;;12.52;7.97;;;15.90;79.70;;;;;;5049618;28;20040;-80
2021/10/16 09:21:54;;;;;;;12.95;8.18;;;17.10;77.00;;;;;;5048113;28;20025;-80
2021/10/16 09:24:30;;;;;;;13.73;8.25;;;17.90;73.80;;;;;;5049338;28;20028;-80
2021/10/16 09:26:57;;;;;;;11.50;7.55;;;18.70;70.00;;;;;;5049437;28;20029;-80
2021/10/16 09:29:28;;;;;;;9.55;7.80;;;19.10;66.70;;;;;;5048103;28;20148;-79
2021/10/16 09:31:59;;;;;;;17.75;8.38;;;19.20;65.20;;;;;;5047899;28;20025;-80
2021/10/16 09:34:33;;;;;;;15.68;7.57;;;19.40;62.70;;;;;;5049294;28;20029;-80
2021/10/16 09:37:07;;;;;;;12.93;7.28;;;19.80;61.60;;;;;;5049209;28;20549;-80
2021/10/16 09:39:34;;;;;;;11.30;6.75;;;20.30;59.90;;;;;;5047959;28;20615;-80
2021/10/16 09:42:00;;;;;;;12.00;7.28;;;20.60;58.60;;;;;;5047592;28;20048;-80
2021/10/16 09:44:28;;;;;;;10.93;6.90;;;20.90;57.10;;;;;;5048963;28;20461;-80
2021/10/16 09:47:01;;;;;;;11.45;8.13;;;20.80;55.80;;;;;;5048936;28;20213;-80
2021/10/16 09:49:32;;;;;;;18.65;8.50;;;20.90;55.30;;;;;;5048186;28;20041;-80
2021/10/16 09:51:58;;;;;;;15.07;7.15;;;21.30;54.90;;;;;;5047102;28;20497;-79
2021/10/16 09:54:24;;;;;;;10.15;7.00;;;21.40;53.10;;;;;;5048700;28;20060;-80
2021/10/16 09:56:50;;;;;;;14.55;9.25;;;21.20;53.00;;;;;;5048907;28;20040;-80
2021/10/16 09:59:19;;;;;;;10.05;6.53;;;21.10;52.70;;;;;;5048801;28;20032;-78
2021/10/16 10:01:46;;;;;;;7.57;4.68;;;20.70;53.50;;;;;;5048890;28;20029;-79
2021/10/16 10:04:15;;;;;;;6.13;3.83;;;20.00;54.50;;;;;;5048590;28;20063;-78
2021/10/16 10:06:41;;;;;;;7.13;4.15;;;19.30;55.70;;;;;;5048695;28;20017;-79
2021/10/16 10:09:07;;;;;;;8.20;4.93;;;18.70;57.70;;;;;;5047684;28;20615;-81
2021/10/16 10:11:35;;;;;;;11.98;6.95;;;18.10;58.90;;;;;;5048490;28;20108;-78
2021/10/16 10:14:02;;;;;;;15.80;7.70;;;17.80;60.80;;;;;;5047426;28;20025;-77
2021/10/16 10:16:31;;;;;;;8.95;6.40;;;17.50;62.30;;;;;;5048546;28;20035;-78
2021/10/16 10:19:00;;;;;;;8.80;5.03;;;17.10;63.70;;;;;;5048647;28;20036;-78
2021/10/16 10:21:34;;;;;;;6.22;4.00;;;17.00;63.80;;;;;;5047437;28;20128;-77
2021/10/16 10:24:01;;;;;;;8.68;4.38;;;16.90;63.70;;;;;;5048647;28;20041;-78
2021/10/16 10:26:34;;;;;;;11.75;4.32;;;16.60;65.30;;;;;;5048760;28;20386;-78
2021/10/16 10:29:03;;;;;;;10.52;4.80;;;16.40;65.60;;;;;;5048510;28;20081;-78
2021/10/16 10:31:43;;;;;;;8.18;4.50;;;16.20;67.00;;;;;;5048338;28;20089;-78
2021/10/16 10:34:14;;;;;;;6.85;4.22;;;16.00;67.90;;;;;;5046997;28;20033;-77
2021/10/16 10:36:47;;;;;;;5.78;4.05;;;15.90;69.30;;;;;;5048537;28;20053;-77
2021/10/16 10:39:34;;;;;;;3.92;2.20;;;15.90;69.60;;;;;;5048445;28;20129;-77
2021/10/16 10:42:00;;;;;;;6.13;3.15;;;15.70;69.30;;;;;;5046955;28;20041;-80
2021/10/16 10:44:45;;;;;;;3.90;2.33;;;15.80;70.00;;;;;;5048452;28;20031;-79
2021/10/16 10:47:23;;;;;;;13.40;2.95;;;15.80;70.50;;;;;;5048224;28;20513;-77
2021/10/16 10:49:53;;;;;;;5.35;2.75;;;15.70;71.10;;;;;;5048283;28;20025;-76
2021/10/16 10:52:22;;;;;;;6.88;3.30;;;15.70;71.10;;;;;;5048082;28;20033;-78
2021/10/16 10:55:04;;;;;;;8.73;3.20;;;15.70;71.80;;;;;;5048211;28;20056;-78
2021/10/16 10:57:45;;;;;;;4.93;2.38;;;15.70;71.20;;;;;;5048165;28;20024;-78
2021/10/16 11:00:13;;;;;;;5.63;3.17;;;15.70;72.60;;;;;;5047237;28;20037;-78
2021/10/16 11:02:39;;;;;;;5.22;3.30;;;15.70;71.80;;;;;;5047987;28;20052;-78
2021/10/16 11:08:08;;;;;;;9.43;3.55;;;15.60;71.50;;;;;;5047332;28;19913;-79
2021/10/16 11:10:34;;;;;;;9.43;2.45;;;15.60;72.00;;;;;;5050662;28;20061;-78
2021/10/16 11:13:20;;;;;;;;;;;15.60;72.70;;;;;;5052454;28;20064;-79
2021/10/16 11:15:57;;;;;;;5.10;2.72;;;15.50;72.30;;;;;;5050073;28;19912;-80
2021/10/16 11:18:23;;;;;;;3.78;2.03;;;15.40;72.30;;;;;;5050849;28;20029;-81
2021/10/16 11:20:49;;;;;;;8.35;2.50;;;15.40;73.10;;;;;;5051770;28;20036;-81
2021/10/16 11:23:21;;;;;;;;;;;15.40;72.90;;;;;;5050835;28;20117;-82
2021/10/16 11:26:07;;;;;;;5.35;2.38;;;15.50;72.70;;;;;;5049263;28;19916;-79
2021/10/16 11:28:36;;;;;;;59.92;32.08;;;15.50;72.90;;;;;;5047504;28;20501;-80
2021/10/16 11:31:03;;;;;;;20.38;7.28;;;15.50;73.10;;;;;;5049232;28;20033;-79
2021/10/16 11:33:31;;;;;;;5.45;2.42;;;15.60;72.50;;;;;;5047554;28;20112;-79
2021/10/16 11:35:58;;;;;;;8.82;3.17;;;15.60;71.80;;;;;;5049260;28;20029;-79
2021/10/16 11:38:26;;;;;;;7.25;4.40;;;15.60;72.70;;;;;;5050393;28;20124;-80
2021/10/16 11:40:54;;;;;;;4.80;2.83;;;15.70;72.40;;;;;;5043732;28;20044;-81
2021/10/16 11:43:22;;;;;;;4.10;2.42;;;15.80;71.10;;;;;;5046845;28;20037;-80
2021/10/16 11:45:51;;;;;;;4.82;1.90;;;15.70;71.10;;;;;;5050575;28;20033;-79
2021/10/16 11:48:20;;;;;;;4.78;1.98;;;15.70;71.30;;;;;;5048848;28;20080;-77
2021/10/16 11:51:01;;;;;;;7.53;2.78;;;15.70;71.70;;;;;;5044893;28;20119;-76
2021/10/16 11:53:29;;;;;;;4.25;2.22;;;15.70;71.90;;;;;;5050068;28;20052;-76
2021/10/16 11:56:00;;;;;;;9.50;2.97;;;15.70;71.80;;;;;;5047157;28;20551;-77
2021/10/16 11:58:28;;;;;;;5.93;2.30;;;15.70;71.40;;;;;;5049777;28;20406;-79
2021/10/16 12:00:56;;;;;;;4.25;2.70;;;15.80;71.70;;;;;;5049189;28;20059;-77
2021/10/16 12:03:27;;;;;;;4.38;2.13;;;15.90;71.70;;;;;;5048486;28;20065;-76
2021/10/16 12:05:55;;;;;;;3.45;1.63;;;15.90;71.90;;;;;;5050040;28;20466;-77
2021/10/16 12:08:32;;;;;;;4.10;2.03;;;16.00;71.80;;;;;;5048681;28;20037;-77
2021/10/16 12:11:03;;;;;;;8.20;2.40;;;16.10;70.80;;;;;;5048271;28;20032;-77
2021/10/16 12:13:36;;;;;;;4.10;2.28;;;16.10;70.50;;;;;;5048120;28;20131;-77
2021/10/16 12:16:17;;;;;;;3.90;2.00;;;16.10;71.00;;;;;;5047869;28;20028;-77
2021/10/16 12:18:52;;;;;;;6.30;2.10;;;16.20;69.90;;;;;;5048935;28;20045;-76
2021/10/16 12:21:51;;;;;;;3.75;2.10;;;16.30;70.30;;;;;;5048753;28;20037;-77
2021/10/16 12:24:16;;;;;;;4.82;2.47;;;16.30;70.10;;;;;;5048209;28;20082;-77
2021/10/16 12:26:45;;;;;;;;;;;16.30;69.90;;;;;;5049003;28;20048;-77
2021/10/16 12:29:25;;;;;;;5.38;2.72;;;16.30;69.80;;;;;;5040410;28;19940;-77
2021/10/16 12:31:54;;;;;;;8.10;2.58;;;16.30;69.60;;;;;;5048495;28;20442;-77
2021/10/16 12:34:27;;;;;;;5.15;2.60;;;16.40;69.60;;;;;;5049148;28;20031;-78
2021/10/16 12:36:58;;;;;;;4.63;2.55;;;16.40;69.20;;;;;;5050526;28;20402;-77
2021/10/16 12:39:28;;;;;;;2.88;1.83;;;16.60;69.10;;;;;;5049129;28;20468;-78
2021/10/16 12:41:55;;;;;;;2.95;1.70;;;16.70;69.10;;;;;;5050201;28;20025;-77
2021/10/16 12:44:26;;;;;;;3.97;2.33;;;16.70;68.50;;;;;;5049924;28;20078;-76
2021/10/16 12:47:08;;;;;;;7.50;2.50;;;16.80;68.20;;;;;;5050129;28;20136;-77
2021/10/16 12:49:45;;;;;;;4.22;2.85;;;16.80;67.70;;;;;;5050210;28;20063;-77
2021/10/16 12:52:28;;;;;;;5.18;2.92;;;16.80;67.90;;;;;;5049994;28;20025;-76
2021/10/16 12:54:59;;;;;;;6.28;2.85;;;16.70;66.80;;;;;;5050046;28;20490;-77
2021/10/16 12:57:26;;;;;;;7.93;3.53;;;16.60;67.70;;;;;;5049978;28;20025;-78
2021/10/16 12:59:52;;;;;;;5.78;2.53;;;16.60;67.90;;;;;;5050257;28;20041;-78
2021/10/16 13:02:18;;;;;;;4.15;2.72;;;16.60;68.10;;;;;;5049529;28;20048;-79
2021/10/16 13:04:50;;;;;;;6.35;3.53;;;16.60;67.80;;;;;;5049896;28;20027;-78
2021/10/16 13:07:17;;;;;;;6.53;2.78;;;16.50;68.40;;;;;;5049964;28;20443;-78
2021/10/16 13:09:44;;;;;;;5.88;3.40;;;16.60;68.80;;;;;;5049928;28;20096;-78
2021/10/16 13:12:11;;;;;;;6.30;3.55;;;16.70;67.90;;;;;;5049797;28;20053;-78
2021/10/16 13:14:37;;;;;;;4.88;2.45;;;16.70;67.20;;;;;;5048667;28;20119;-79